Time;durP1;ratioP1;P1;durP2;ratioP2;P2;SDS_P1;SDS_P2;PMS_P1;PMS_P2;Temp;Humidity;BMP_temperature;BMP_pressure;BME280_temperature;BME280_humidity;BME280_pressure;Samples;Min_cycle;Max_cycle;Signal;HPM_P1;HPM_P2
2022/12/23 00:00:34;;;;;;;68.60;41.33;;;;;;;7.49;100.00;100460.94;4974907;28;20050;-86
2022/12/23 00:03:00;;;;;;;62.80;38.90;;;;;;;7.44;100.00;100460.56;4976957;28;20106;-84
2022/12/23 00:05:25;;;;;;;66.63;40.20;;;;;;;7.43;100.00;100456.25;4976057;28;20034;-85
2022/12/23 00:07:51;;;;;;;72.55;42.28;;;;;;;7.37;100.00;100454.19;4975707;28;20474;-85
2022/12/23 00:10:16;;;;;;;71.50;42.95;;;;;;;7.28;100.00;100460.31;4974819;28;20482;-86
2022/12/23 00:15:26;;;;;;;71.95;41.70;;;;;;;7.30;100.00;100445.19;4978508;28;20509;-83
2022/12/23 00:17:51;;;;;;;76.28;41.10;;;;;;;7.22;100.00;100445.09;4978632;28;20038;-85
2022/12/23 00:20:17;;;;;;;68.28;39.03;;;;;;;7.27;100.00;100445.47;4976882;28;20098;-84
2022/12/23 00:23:06;;;;;;;73.80;40.67;;;;;;;7.14;100.00;100445.78;4980007;28;20035;-87
2022/12/23 00:25:39;;;;;;;64.57;40.42;;;;;;;7.20;100.00;100444.38;4986996;28;20035;-82
2022/12/23 00:28:10;;;;;;;67.40;39.83;;;;;;;7.27;100.00;100432.28;4995014;28;20094;-84
2022/12/23 00:30:46;;;;;;;65.65;40.42;;;;;;;7.33;100.00;100441.44;4986656;28;20046;-86
2022/12/23 00:33:14;;;;;;;67.43;41.80;;;;;;;7.06;100.00;100448.28;4977046;28;20581;-84
2022/12/23 00:35:41;;;;;;;64.25;37.50;;;;;;;7.41;100.00;100447.66;4978017;28;20061;-83
2022/12/23 00:38:06;;;;;;;69.80;41.60;;;;;;;7.33;100.00;100442.25;4978206;28;20038;-83
2022/12/23 00:43:16;;;;;;;71.57;40.47;;;;;;;7.40;100.00;100460.97;4977837;28;20050;-85
2022/12/23 00:45:42;;;;;;;69.68;41.15;;;;;;;7.14;100.00;100471.31;4976622;28;20054;-83
2022/12/23 00:50:52;;;;;;;67.90;38.72;;;;;;;7.22;100.00;100471.44;4980415;28;20053;-84
2022/12/23 00:53:19;;;;;;;71.32;40.08;;;;;;;7.23;100.00;100465.19;4981314;28;20031;-83
2022/12/23 00:55:49;;;;;;;65.35;39.28;;;;;;;7.19;100.00;100472.53;4965488;28;20039;-85
2022/12/23 00:58:16;;;;;;;62.13;38.58;;;;;;;7.42;100.00;100507.34;4983022;28;20114;-85
2022/12/23 01:06:15;;;;;;;68.05;37.33;;;;;;;7.47;100.00;100505.09;4977222;28;20529;-84
2022/12/23 01:08:40;;;;;;;73.45;40.78;;;;;;;7.33;100.00;100497.63;4975438;28;20473;-83
2022/12/23 01:11:10;;;;;;;71.97;40.97;;;;;;;7.25;100.00;100497.50;4973652;28;20063;-85
2022/12/23 01:13:37;;;;;;;60.95;37.25;;;;;;;7.53;100.00;100509.78;4974527;28;20034;-84
2022/12/23 01:16:10;;;;;;;65.03;38.05;;;;;;;7.57;100.00;100511.19;4974207;28;20143;-85
2022/12/23 01:18:36;;;;;;;66.18;39.80;;;;;;;7.41;100.00;100500.41;4980404;28;20045;-83
2022/12/23 01:21:04;;;;;;;66.10;40.20;;;;;;;7.34;100.00;100493.19;4994713;28;20042;-83
2022/12/23 01:23:30;;;;;;;66.82;40.75;;;;;;;7.30;100.00;100492.63;4995103;28;20098;-84
2022/12/23 01:26:00;;;;;;;64.07;38.83;;;;;;;7.42;100.00;100502.06;4998955;28;20452;-84
2022/12/23 01:28:28;;;;;;;67.60;41.10;;;;;;;7.17;100.00;100497.38;4997057;28;20030;-83
2022/12/23 01:30:54;;;;;;;69.35;41.42;;;;;;;7.16;100.00;100508.88;4998105;28;20077;-84
2022/12/23 01:33:20;;;;;;;66.65;40.10;;;;;;;7.30;100.00;100519.00;4997854;28;20531;-83
2022/12/23 01:35:49;;;;;;;67.65;40.03;;;;;;;7.43;100.00;100508.16;4996656;28;20057;-84
2022/12/23 01:38:15;;;;;;;73.32;42.55;;;;;;;7.40;100.00;100503.16;4997851;28;20389;-85
2022/12/23 01:40:42;;;;;;;66.47;39.20;;;;;;;7.29;100.00;100485.72;4997509;28;20030;-84
2022/12/23 01:43:15;;;;;;;64.60;38.85;;;;;;;7.40;100.00;100472.34;4996902;28;20038;-83
2022/12/23 01:45:40;;;;;;;;;;;;;;;7.48;100.00;100479.56;4998314;28;20409;-84
2022/12/23 01:48:25;;;;;;;67.82;40.63;;;;;;;7.36;100.00;100488.63;4997813;28;19917;-82
2022/12/23 01:50:57;;;;;;;65.80;40.10;;;;;;;7.40;100.00;100488.19;4998918;28;20162;-84
2022/12/23 01:53:27;;;;;;;73.75;43.53;;;;;;;7.22;100.00;100495.97;4998542;28;20473;-82
2022/12/23 01:56:06;;;;;;;73.68;43.45;;;;;;;7.11;100.00;100490.03;4997257;28;20042;-82
2022/12/23 01:58:36;;;;;;;63.90;39.20;;;;;;;7.24;100.00;100485.31;4998198;28;20042;-83
2022/12/23 02:03:49;;;;;;;61.25;36.75;;;;;;;7.58;100.00;100480.38;4998155;28;20061;-83
2022/12/23 02:09:17;;;;;;;62.83;39.08;;;;;;;7.56;100.00;100467.31;4997960;28;20046;-83
2022/12/23 02:12:07;;;;;;;63.20;37.55;;;;;;;7.48;100.00;100474.28;4997951;28;20513;-83
2022/12/23 02:18:20;;;;;;;59.80;37.08;;;;;;;7.50;100.00;100462.63;4997190;28;20046;-83
2022/12/23 02:21:04;;;;;;;64.95;38.85;;;;;;;7.39;100.00;100472.50;4997535;28;20034;-84
2022/12/23 02:23:54;;;;;;;70.05;39.30;;;;;;;7.29;100.00;100480.44;4997393;28;20034;-83
2022/12/23 02:26:56;;;;;;;70.30;40.67;;;;;;;7.03;100.00;100476.72;4997096;28;20035;-84
2022/12/23 02:29:57;;;;;;;72.87;43.27;;;;;;;7.03;100.00;100447.72;4997033;28;20125;-83
2022/12/23 02:32:38;;;;;;;79.32;46.30;;;;;;;6.66;100.00;100445.81;4947616;28;20305;-85
2022/12/23 02:35:16;;;;;;;79.18;45.17;;;;;;;6.61;100.00;100445.44;4996700;28;20042;-83
2022/12/23 02:38:06;;;;;;;78.05;47.33;;;;;;;6.62;100.00;100441.84;4996435;28;20027;-83
2022/12/23 02:41:12;;;;;;;82.65;47.33;;;;;;;6.58;100.00;100443.06;4996651;28;20512;-85
2022/12/23 02:43:47;;;;;;;88.53;48.28;;;;;;;6.52;100.00;100448.91;4995936;28;20116;-83
2022/12/23 02:46:22;;;;;;;75.85;43.88;;;;;;;6.84;100.00;100443.34;4995901;28;20039;-84
2022/12/23 02:48:52;;;;;;;78.75;46.05;;;;;;;6.81;100.00;100448.03;4996500;28;20438;-84
2022/12/23 02:51:23;;;;;;;74.93;44.60;;;;;;;6.53;100.00;100426.03;4996130;28;20096;-84
2022/12/23 02:53:53;;;;;;;86.93;47.42;;;;;;;6.46;100.00;100430.19;4996498;28;20037;-83
2022/12/23 02:56:22;;;;;;;83.47;46.97;;;;;;;6.51;100.00;100430.59;4995076;28;20045;-83
2022/12/23 02:59:03;;;;;;;79.72;45.83;;;;;;;6.79;100.00;100426.28;4994344;28;20043;-84
2022/12/23 03:01:32;;;;;;;85.47;49.00;;;;;;;6.66;100.00;100422.13;4996027;28;20477;-82
2022/12/23 03:03:58;;;;;;;87.65;46.60;;;;;;;6.64;100.00;100416.19;4994629;28;20481;-82
2022/12/23 03:06:35;;;;;;;78.78;43.08;;;;;;;6.55;100.00;100421.44;4994620;28;20038;-83
2022/12/23 03:09:00;;;;;;;68.32;39.55;;;;;;;6.80;100.00;100414.78;4994670;28;20030;-82
2022/12/23 03:11:50;;;;;;;72.80;40.58;;;;;;;6.54;100.00;100407.44;4996612;28;20066;-83
2022/12/23 03:14:42;;;;;;;70.80;40.55;;;;;;;6.37;100.00;100402.88;4996329;28;20034;-85
2022/12/23 03:17:40;;;;;;;51.47;29.07;;;;;;;6.33;100.00;100419.09;4996390;28;20135;-84
2022/12/23 03:20:19;;;;;;;72.65;40.53;;;;;;;6.41;100.00;100420.06;4996406;28;20042;-83
2022/12/23 03:23:14;;;;;;;75.00;40.95;;;;;;;6.32;100.00;100431.41;4996602;28;20505;-83
2022/12/23 03:25:58;;;;;;;70.88;40.35;;;;;;;6.38;100.00;100446.66;4963380;28;20049;-85
2022/12/23 03:28:36;;;;;;;74.65;41.30;;;;;;;6.60;100.00;100445.56;5008241;28;20030;-81
2022/12/23 03:31:04;;;;;;;76.05;40.40;;;;;;;6.69;100.00;100432.38;5009409;28;20063;-82
2022/12/23 03:33:43;;;;;;;70.10;40.67;;;;;;;6.68;100.00;100419.38;4997803;28;20053;-83
2022/12/23 03:36:15;;;;;;;66.95;38.88;;;;;;;6.85;100.00;100417.81;4998718;28;20040;-83
2022/12/23 03:38:44;;;;;;;65.55;37.58;;;;;;;6.99;100.00;100420.03;4997660;28;20120;-84
2022/12/23 03:41:16;;;;;;;62.58;34.70;;;;;;;7.04;100.00;100423.06;4997815;28;20362;-87
2022/12/23 03:43:47;;;;;;;61.13;36.60;;;;;;;6.99;100.00;100418.22;4997692;28;20026;-84
2022/12/23 03:46:20;;;;;;;59.45;35.25;;;;;;;7.17;100.00;100415.69;4999211;28;20473;-84
2022/12/23 03:48:49;;;;;;;63.10;36.08;;;;;;;7.10;100.00;100425.97;5001277;28;20477;-83
2022/12/23 03:51:28;;;;;;;61.45;32.70;;;;;;;7.14;100.00;100423.88;5004773;28;20064;-82
2022/12/23 03:54:02;;;;;;;61.10;35.13;;;;;;;7.03;100.00;100413.47;5004344;28;20034;-82
2022/12/23 03:56:37;;;;;;;63.45;36.85;;;;;;;6.83;100.00;100419.78;5004889;28;20473;-83
2022/12/23 03:59:23;;;;;;;65.65;37.47;;;;;;;6.85;100.00;100429.19;4994563;28;20227;-82
2022/12/23 04:02:03;;;;;;;65.57;38.25;;;;;;;6.85;100.00;100423.09;4995952;28;20042;-83
2022/12/23 04:04:41;;;;;;;61.67;35.75;;;;;;;7.02;100.00;100425.00;4996213;28;20037;-84
2022/12/23 04:07:14;;;;;;;59.83;35.47;;;;;;;7.15;100.00;100409.72;4996060;28;20061;-85
2022/12/23 04:09:41;;;;;;;64.00;35.00;;;;;;;6.99;100.00;100414.75;4994687;28;20543;-84
2022/12/23 04:12:13;;;;;;;64.68;36.55;;;;;;;6.92;100.00;100424.19;4995400;28;20022;-84
2022/12/23 04:14:46;;;;;;;62.20;35.70;;;;;;;6.99;100.00;100434.03;4994188;28;20038;-84
2022/12/23 04:17:11;;;;;;;60.05;36.15;;;;;;;7.06;100.00;100416.66;4995161;28;20037;-83
2022/12/23 04:19:37;;;;;;;72.15;38.25;;;;;;;6.88;100.00;100412.28;4993532;28;20034;-84
2022/12/23 04:22:02;;;;;;;60.00;35.35;;;;;;;6.98;100.00;100423.63;4995464;28;20041;-83
2022/12/23 04:24:31;;;;;;;63.83;38.75;;;;;;;6.93;100.00;100417.94;4995538;28;20037;-86
2022/12/23 04:26:56;;;;;;;61.13;36.80;;;;;;;6.72;100.00;100418.97;4995535;28;20048;-83
2022/12/23 04:29:22;;;;;;;62.10;36.22;;;;;;;6.85;100.00;100423.94;4995140;28;20130;-83
2022/12/23 04:31:47;;;;;;;58.22;35.33;;;;;;;6.87;100.00;100416.72;4995078;28;20042;-83
2022/12/23 04:34:13;;;;;;;61.33;35.22;;;;;;;7.08;100.00;100403.38;4998741;28;20053;-84
2022/12/23 04:36:38;;;;;;;57.90;33.47;;;;;;;7.10;100.00;100396.97;4995556;28;20042;-84
2022/12/23 04:39:04;;;;;;;54.22;33.08;;;;;;;7.24;100.00;100387.78;4994891;28;20030;-83
2022/12/23 04:41:29;;;;;;;54.20;32.35;;;;;;;7.24;100.00;100380.69;4995225;28;20542;-84
2022/12/23 04:43:55;;;;;;;55.08;33.13;;;;;;;7.02;100.00;100373.16;4993884;28;20093;-85
2022/12/23 04:46:20;;;;;;;54.03;31.70;;;;;;;7.05;100.00;100379.94;4995587;28;20039;-85
2022/12/23 04:48:49;;;;;;;56.42;32.42;;;;;;;7.08;100.00;100377.00;4993985;28;20042;-85
2022/12/23 04:51:14;;;;;;;54.63;30.33;;;;;;;6.89;100.00;100367.38;4995422;28;20042;-85
2022/12/23 04:53:40;;;;;;;53.88;31.77;;;;;;;6.83;100.00;100367.91;4994492;28;20027;-85
2022/12/23 04:56:07;;;;;;;77.25;34.78;;;;;;;6.59;100.00;100381.56;4995449;28;20470;-85
2022/12/23 04:58:33;;;;;;;54.03;32.13;;;;;;;6.54;100.00;100389.03;4994323;28;20039;-85
2022/12/23 05:01:04;;;;;;;58.60;32.92;;;;;;;6.61;100.00;100395.41;4998208;28;20397;-84
2022/12/23 05:03:29;;;;;;;53.22;31.02;;;;;;;6.41;100.00;100391.09;5001086;28;20026;-85
2022/12/23 05:05:55;;;;;;;56.80;31.42;;;;;;;6.32;100.00;100393.75;4999084;28;20077;-85
2022/12/23 05:08:20;;;;;;;51.30;30.55;;;;;;;6.17;100.00;100393.31;4997767;28;20386;-82
2022/12/23 05:10:46;;;;;;;55.05;30.77;;;;;;;6.39;100.00;100398.31;4998432;28;20034;-82
2022/12/23 05:13:12;;;;;;;52.38;30.00;;;;;;;6.52;100.00;100412.03;4999746;28;20081;-84
2022/12/23 05:15:37;;;;;;;51.53;29.08;;;;;;;6.73;100.00;100410.06;4999689;28;20471;-85
2022/12/23 05:18:03;;;;;;;50.88;29.67;;;;;;;6.60;100.00;100414.78;4998971;28;20349;-86
2022/12/23 05:20:28;;;;;;;52.05;29.08;;;;;;;6.82;100.00;100412.84;4998544;28;20042;-84
2022/12/23 05:22:54;;;;;;;51.17;29.17;;;;;;;6.66;100.00;100414.22;4997664;28;20042;-84
2022/12/23 05:25:19;;;;;;;52.28;30.70;;;;;;;6.73;100.00;100410.06;4998673;28;20201;-86
2022/12/23 05:27:45;;;;;;;58.15;31.60;;;;;;;6.67;100.00;100410.63;4998391;28;20038;-84
2022/12/23 05:30:14;;;;;;;54.22;32.13;;;;;;;6.53;100.00;100412.88;4998875;28;20070;-85
2022/12/23 05:32:40;;;;;;;53.80;31.60;;;;;;;6.31;100.00;100411.31;4997411;28;20034;-83
2022/12/23 05:35:05;;;;;;;56.90;33.45;;;;;;;6.20;100.00;100407.00;4998122;28;20042;-86
2022/12/23 05:37:31;;;;;;;55.60;32.55;;;;;;;6.33;100.00;100421.72;4999168;28;20031;-86
2022/12/23 05:39:56;;;;;;;56.92;31.80;;;;;;;6.43;100.00;100430.47;4998113;28;20158;-85
2022/12/23 05:42:22;;;;;;;55.83;31.17;;;;;;;6.52;100.00;100422.56;4997735;28;20038;-85
2022/12/23 05:44:47;;;;;;;58.38;31.23;;;;;;;6.66;100.00;100430.03;4998423;28;20206;-84
2022/12/23 05:47:13;;;;;;;52.55;30.52;;;;;;;6.68;100.00;100433.38;4998312;28;20507;-84
2022/12/23 05:49:38;;;;;;;53.33;32.40;;;;;;;6.74;100.00;100424.91;4996611;28;20048;-82
2022/12/23 05:52:04;;;;;;;58.97;33.08;;;;;;;6.36;100.00;100417.03;4997848;28;20159;-84
2022/12/23 05:54:29;;;;;;;57.95;32.50;;;;;;;6.47;100.00;100416.88;4997427;28;20026;-85
2022/12/23 05:56:55;;;;;;;55.92;34.42;;;;;;;6.28;100.00;100419.50;4995594;28;20042;-84
2022/12/23 05:59:21;;;;;;;52.10;31.20;;;;;;;6.15;100.00;100413.66;4998305;28;20057;-84
2022/12/23 06:01:49;;;;;;;59.47;31.92;;;;;;;6.15;100.00;100425.03;5002934;28;20038;-85
2022/12/23 06:04:14;;;;;;;61.92;32.90;;;;;;;5.94;100.00;100436.59;4978142;28;20045;-85
2022/12/23 06:06:42;;;;;;;58.25;33.15;;;;;;;5.82;100.00;100437.66;4980997;28;20035;-84
2022/12/23 06:09:08;;;;;;;71.65;33.65;;;;;;;5.56;100.00;100432.88;4985073;28;20363;-85
2022/12/23 06:11:34;;;;;;;75.50;32.83;;;;;;;5.43;100.00;100421.75;4980329;28;20048;-86
2022/12/23 06:14:03;;;;;;;105.50;35.47;;;;;;;5.24;100.00;100442.66;4977837;28;20041;-86
2022/12/23 06:16:28;;;;;;;73.65;32.58;;;;;;;5.22;100.00;100450.66;4982027;28;20098;-85
2022/12/23 06:18:55;;;;;;;55.80;32.38;;;;;;;5.23;100.00;100451.50;4983048;28;20030;-86
2022/12/23 06:21:21;;;;;;;219.40;35.80;;;;;;;5.01;100.00;100443.75;4988370;28;20038;-84
2022/12/23 06:23:46;;;;;;;65.85;35.03;;;;;;;4.90;100.00;100441.19;5002780;28;20047;-87
2022/12/23 06:26:12;;;;;;;138.93;36.00;;;;;;;4.82;100.00;100451.50;4991817;28;20035;-87
2022/12/23 06:28:38;;;;;;;108.05;34.47;;;;;;;4.71;100.00;100460.25;4995986;28;20045;-86
2022/12/23 06:31:04;;;;;;;55.78;33.95;;;;;;;4.60;100.00;100450.66;5015230;28;20050;-86
2022/12/23 06:33:30;;;;;;;131.10;33.17;;;;;;;4.50;100.00;100452.38;4993479;28;20039;-85
2022/12/23 06:35:56;;;;;;;247.82;36.00;;;;;;;4.29;100.00;100467.22;4983379;28;20081;-81
2022/12/23 06:38:21;;;;;;;114.60;33.58;;;;;;;4.17;100.00;100481.31;4988068;28;20477;-81
2022/12/23 06:40:47;;;;;;;98.25;32.58;;;;;;;3.94;100.00;100479.69;4980009;28;20030;-80
2022/12/23 06:43:12;;;;;;;59.80;29.38;;;;;;;3.98;100.00;100465.34;4980799;28;20074;-81
2022/12/23 06:45:39;;;;;;;69.80;30.88;;;;;;;4.09;100.00;100462.72;4974004;28;20094;-81
2022/12/23 06:48:10;;;;;;;84.38;31.27;;;;;;;4.00;100.00;100466.09;4976136;28;20043;-77
2022/12/23 06:50:43;;;;;;;63.10;32.70;;;;;;;4.09;100.00;100468.81;4974693;28;20042;-82
2022/12/23 06:53:08;;;;;;;99.95;32.22;;;;;;;4.21;100.00;100484.53;4978417;28;20027;-81
2022/12/23 06:55:34;;;;;;;163.18;34.58;;;;;;;4.10;100.00;100490.63;4973948;28;20038;-81
2022/12/23 06:58:00;;;;;;;123.88;33.28;;;;;;;4.04;100.00;100481.44;4975881;28;20042;-81
2022/12/23 07:00:25;;;;;;;188.25;34.95;;;;;;;4.07;100.00;100496.97;4975187;28;20039;-79
2022/12/23 07:02:54;;;;;;;170.57;33.45;;;;;;;4.14;100.00;100487.63;4974900;28;20031;-78
2022/12/23 07:05:20;;;;;;;260.20;31.42;;;;;;;4.42;100.00;100472.31;4975195;28;20031;-78
2022/12/23 07:07:45;;;;;;;66.88;28.45;;;;;;;4.43;100.00;100472.19;4975527;28;20541;-81
2022/12/23 07:10:11;;;;;;;310.90;30.77;;;;;;;4.18;100.00;100473.31;4989080;28;20168;-77
2022/12/23 07:12:37;;;;;;;196.23;29.27;;;;;;;4.24;100.00;100477.25;4994918;28;20026;-81
2022/12/23 07:15:03;;;;;;;272.02;31.30;;;;;;;4.16;100.00;100484.88;4982827;28;20027;-80
2022/12/23 07:17:28;;;;;;;229.43;31.30;;;;;;;3.96;100.00;100493.50;4983082;28;20098;-78
2022/12/23 07:19:54;;;;;;;203.90;32.03;;;;;;;4.06;100.00;100510.19;4974410;28;20541;-78
2022/12/23 07:22:20;;;;;;;162.95;32.00;;;;;;;4.14;100.00;100507.78;4978773;28;20046;-78
2022/12/23 07:24:46;;;;;;;121.75;33.35;;;;;;;4.38;100.00;100510.22;4974202;28;20041;-80
2022/12/23 07:27:11;;;;;;;104.18;33.70;;;;;;;4.48;100.00;100522.50;4972647;28;20913;-77
2022/12/23 07:29:37;;;;;;;83.13;36.83;;;;;;;4.40;100.00;100518.81;4973549;28;20038;-77
2022/12/23 07:32:03;;;;;;;88.30;37.65;;;;;;;4.60;100.00;100523.31;4983396;28;20019;-78
2022/12/23 07:34:29;;;;;;;124.28;44.58;;;;;;;4.53;100.00;100522.97;4989724;28;20030;-78
2022/12/23 07:36:54;;;;;;;132.45;45.80;;;;;;;4.71;100.00;100522.44;4984443;28;20098;-79
2022/12/23 07:39:20;;;;;;;164.35;46.72;;;;;;;4.81;100.00;100515.47;4976590;28;20065;-79
2022/12/23 07:41:46;;;;;;;119.38;46.92;;;;;;;4.87;100.00;100522.84;4975127;28;20038;-78
2022/12/23 07:44:11;;;;;;;109.10;45.83;;;;;;;5.00;100.00;100518.25;4985393;28;20038;-79
2022/12/23 07:46:37;;;;;;;146.07;46.65;;;;;;;5.02;100.00;100500.56;4984781;28;20035;-79
2022/12/23 07:49:03;;;;;;;147.93;46.05;;;;;;;5.25;100.00;100496.88;4987145;28;20047;-79
2022/12/23 07:51:29;;;;;;;114.88;45.03;;;;;;;5.55;100.00;100501.31;4975745;28;20033;-79
2022/12/23 07:53:54;;;;;;;75.18;39.35;;;;;;;5.66;100.00;100511.78;4986383;28;20121;-80
2022/12/23 07:56:20;;;;;;;96.30;42.40;;;;;;;5.78;100.00;100521.22;4986400;28;20042;-78
2022/12/23 07:58:49;;;;;;;127.07;46.55;;;;;;;5.49;100.00;100528.97;4984816;28;20054;-78
2022/12/23 08:01:15;;;;;;;140.57;49.85;;;;;;;5.42;100.00;100522.56;4989598;28;20127;-82
2022/12/23 08:03:40;;;;;;;141.55;53.80;;;;;;;5.36;100.00;100514.38;4985012;28;20050;-81
2022/12/23 08:06:08;;;;;;;164.13;56.80;;;;;;;5.50;100.00;100511.41;4981039;28;20238;-79
2022/12/23 08:08:34;;;;;;;137.90;59.85;;;;;;;5.40;100.00;100511.31;4983505;28;20030;-79
2022/12/23 08:11:03;;;;;;;136.50;62.83;;;;;;;5.55;100.00;100512.69;4980300;28;20069;-78
2022/12/23 08:13:32;;;;;;;166.07;63.47;;;;;;;5.51;100.00;100500.75;4980196;28;20557;-81
2022/12/23 08:15:59;;;;;;;161.88;63.53;;;;;;;5.59;100.00;100495.69;4977789;28;20042;-81
2022/12/23 08:18:26;;;;;;;202.18;66.82;;;;;;;5.52;100.00;100504.22;4980206;28;20074;-82
2022/12/23 08:21:00;;;;;;;161.30;66.88;;;;;;;5.50;100.00;100504.34;4978885;28;20050;-79
2022/12/23 08:23:27;;;;;;;136.82;65.55;;;;;;;5.61;100.00;100514.78;4983906;28;20049;-81
2022/12/23 08:26:12;;;;;;;164.05;70.85;;;;;;;5.60;100.00;100521.00;4981742;28;20038;-81
2022/12/23 08:28:39;;;;;;;169.77;71.57;;;;;;;5.73;100.00;100528.69;4982613;28;20090;-79
2022/12/23 08:31:14;;;;;;;203.73;70.07;;;;;;;5.86;100.00;100545.13;4974865;28;20098;-80
2022/12/23 08:33:41;;;;;;;164.02;70.00;;;;;;;5.95;100.00;100538.22;4979636;28;20042;-78
2022/12/23 08:36:12;;;;;;;182.02;72.47;;;;;;;5.81;100.00;100538.53;4980190;28;20023;-80
2022/12/23 08:38:37;;;;;;;164.05;71.53;;;;;;;6.01;100.00;100535.91;4978682;28;20027;-79
2022/12/23 08:41:10;;;;;;;168.48;70.60;;;;;;;5.94;100.00;100526.03;4983341;28;20458;-80
2022/12/23 08:43:36;;;;;;;186.05;66.18;;;;;;;5.88;100.00;100537.06;4986404;28;20022;-78
2022/12/23 08:46:02;;;;;;;151.25;67.55;;;;;;;6.01;100.00;100529.78;4986050;28;20188;-80
2022/12/23 08:48:28;;;;;;;167.05;67.88;;;;;;;5.91;100.00;100518.41;4982894;28;20031;-79
2022/12/23 08:50:54;;;;;;;159.13;67.68;;;;;;;5.98;100.00;100524.81;4978403;28;20038;-79
2022/12/23 08:53:19;;;;;;;155.10;69.90;;;;;;;5.99;100.00;100537.84;4980164;28;20047;-79
2022/12/23 08:55:46;;;;;;;163.27;69.65;;;;;;;6.01;100.00;100537.69;4984661;28;20098;-78
2022/12/23 08:58:13;;;;;;;150.95;69.65;;;;;;;5.93;100.00;100551.50;4983783;28;20038;-79
2022/12/23 09:00:39;;;;;;;165.82;71.10;;;;;;;5.93;100.00;100567.28;4976245;28;20090;-79
2022/12/23 09:03:05;;;;;;;170.82;72.85;;;;;;;5.98;100.00;100561.63;4973588;28;20035;-82
2022/12/23 09:05:38;;;;;;;180.32;74.63;;;;;;;6.12;100.00;100553.38;4977284;28;20117;-81
2022/12/23 09:08:04;;;;;;;170.25;71.80;;;;;;;5.98;100.00;100559.00;4973550;28;20739;-79
2022/12/23 09:10:29;;;;;;;170.38;71.95;;;;;;;6.05;100.00;100560.97;4976894;28;20485;-82
2022/12/23 09:12:55;;;;;;;184.50;77.40;;;;;;;6.06;100.00;100567.09;4982380;28;20470;-78
2022/12/23 09:15:20;;;;;;;187.38;78.32;;;;;;;6.07;100.00;100564.28;4980349;28;20066;-78
2022/12/23 09:17:46;;;;;;;207.95;82.68;;;;;;;6.07;100.00;100545.03;4985216;28;20070;-82
2022/12/23 09:20:11;;;;;;;180.80;79.43;;;;;;;6.12;100.00;100541.06;4970034;28;20078;-81
2022/12/23 09:22:37;;;;;;;176.63;77.43;;;;;;;6.21;100.00;100535.00;4967982;28;20496;-83
2022/12/23 09:25:03;;;;;;;170.23;78.35;;;;;;;6.38;100.00;100557.22;4971408;28;20059;-79
2022/12/23 09:27:29;;;;;;;172.10;78.80;;;;;;;6.38;100.00;100562.47;4976593;28;20042;-78
2022/12/23 09:29:54;;;;;;;169.25;76.90;;;;;;;6.45;100.00;100558.34;4978010;28;20098;-79
2022/12/23 09:32:20;;;;;;;152.93;72.07;;;;;;;6.50;100.00;100555.28;4971223;28;20047;-80
2022/12/23 09:34:45;;;;;;;143.00;69.63;;;;;;;6.47;100.00;100551.13;4968349;28;20035;-79
2022/12/23 09:37:12;;;;;;;152.40;69.32;;;;;;;6.65;100.00;100553.94;4974319;28;20030;-81
2022/12/23 09:39:38;;;;;;;131.18;61.60;;;;;;;6.87;100.00;100555.47;4973973;28;20026;-79
2022/12/23 09:42:22;;;;;;;131.18;66.20;;;;;;;6.72;100.00;100555.06;4970501;28;20119;-79
2022/12/23 09:45:01;;;;;;;134.98;64.20;;;;;;;6.81;100.00;100551.63;4984485;28;20048;-81
2022/12/23 09:47:30;;;;;;;129.00;62.58;;;;;;;6.67;100.00;100550.19;4986831;28;20039;-78
2022/12/23 09:50:03;;;;;;;127.80;62.08;;;;;;;6.86;100.00;100557.28;4984119;28;20081;-82
2022/12/23 09:52:47;;;;;;;135.20;63.00;;;;;;;7.08;100.00;100556.19;4980773;28;20066;-81
2022/12/23 09:55:15;;;;;;;128.55;65.03;;;;;;;6.97;100.00;100558.97;4975605;28;20046;-79
2022/12/23 09:58:00;;;;;;;127.88;61.50;;;;;;;7.05;100.00;100545.94;4976994;28;20051;-80
2022/12/23 10:00:34;;;;;;;129.63;59.67;;;;;;;7.14;100.00;100539.81;4978098;28;20114;-79
2022/12/23 10:03:23;;;;;;;120.53;57.83;;;;;;;7.37;100.00;100551.75;4978607;28;20027;-79
2022/12/23 10:06:07;;;;;;;116.85;57.33;;;;;;;7.01;100.00;100555.09;4978689;28;20494;-79
2022/12/23 10:08:40;;;;;;;119.85;58.10;;;;;;;7.12;100.00;100542.63;4974463;28;20042;-79
2022/12/23 10:11:14;;;;;;;122.43;60.10;;;;;;;7.01;100.00;100539.28;4969281;28;20039;-79
2022/12/23 10:13:53;;;;;;;124.20;61.78;;;;;;;7.01;100.00;100528.75;4967636;28;20413;-80
2022/12/23 10:16:26;;;;;;;124.80;61.63;;;;;;;7.02;100.00;100525.13;4968705;28;20513;-80
2022/12/23 10:19:32;;;;;;;123.78;62.00;;;;;;;6.93;100.00;100496.97;4968679;28;20474;-80
2022/12/23 10:22:04;;;;;;;131.70;63.88;;;;;;;6.95;100.00;100492.41;4966036;28;20034;-79
2022/12/23 10:24:43;;;;;;;124.75;62.20;;;;;;;6.88;100.00;100494.78;4967774;28;20034;-81
2022/12/23 10:27:24;;;;;;;130.23;64.30;;;;;;;6.94;100.00;100512.66;4967891;28;20042;-81
2022/12/23 10:29:49;;;;;;;141.65;64.93;;;;;;;6.97;100.00;100524.72;4966088;28;20046;-77
2022/12/23 10:32:56;;;;;;;132.95;65.03;;;;;;;7.05;100.00;100530.13;4965616;28;20042;-78
2022/12/23 10:35:40;;;;;;;139.77;64.80;;;;;;;7.28;100.00;100537.59;4966663;28;20097;-80
2022/12/23 10:38:25;;;;;;;138.43;64.45;;;;;;;7.59;100.00;100535.59;4967321;28;20038;-79
2022/12/23 10:40:59;;;;;;;134.40;61.90;;;;;;;7.64;100.00;100549.19;4971045;28;20031;-78
2022/12/23 10:43:47;;;;;;;123.63;62.30;;;;;;;7.51;100.00;100551.31;4970438;28;20121;-79
2022/12/23 10:46:40;;;;;;;119.68;61.13;;;;;;;7.45;100.00;100554.50;4971061;28;20035;-80
2022/12/23 10:49:25;;;;;;;130.23;63.30;;;;;;;7.38;100.00;100557.84;4973433;28;20034;-79
2022/12/23 10:51:56;;;;;;;127.78;64.97;;;;;;;7.32;100.00;100535.53;4975237;28;20101;-78
2022/12/23 10:54:35;;;;;;;128.85;63.67;;;;;;;7.40;100.00;100551.44;4969767;28;20122;-79
2022/12/23 10:57:02;;;;;;;131.35;62.95;;;;;;;7.68;100.00;100542.66;4964960;28;20049;-79
2022/12/23 10:59:30;;;;;;;120.45;61.13;;;;;;;7.58;100.00;100544.50;4967318;28;20038;-80
2022/12/23 11:02:26;;;;;;;128.57;63.40;;;;;;;7.57;100.00;100520.88;4966692;28;20039;-79
2022/12/23 11:04:52;;;;;;;129.48;61.42;;;;;;;7.72;100.00;100514.19;4968730;28;20385;-80
2022/12/23 11:07:19;;;;;;;128.55;65.13;;;;;;;7.60;100.00;100508.25;4966402;28;20045;-79
2022/12/23 11:09:49;;;;;;;125.70;65.90;;;;;;;7.68;100.00;100511.00;4967654;28;20042;-78
2022/12/23 11:12:20;;;;;;;128.25;64.85;;;;;;;7.68;100.00;100487.28;4965687;28;20039;-81
2022/12/23 11:14:55;;;;;;;121.80;63.13;;;;;;;7.84;100.00;100464.72;4967659;28;20125;-80
2022/12/23 11:17:33;;;;;;;135.40;64.97;;;;;;;7.70;100.00;100473.91;4967342;28;20137;-80
2022/12/23 11:20:18;;;;;;;123.38;64.90;;;;;;;7.80;100.00;100465.00;4966917;28;20038;-78
2022/12/23 11:22:49;;;;;;;122.55;65.53;;;;;;;7.74;100.00;100468.22;4964934;28;20062;-81
2022/12/23 11:25:33;;;;;;;122.40;64.10;;;;;;;7.74;100.00;100444.47;4964825;28;20042;-82
2022/12/23 11:28:10;;;;;;;135.70;67.20;;;;;;;7.78;100.00;100435.31;4967040;28;20070;-81
2022/12/23 11:31:10;;;;;;;116.78;60.95;;;;;;;8.09;100.00;100430.53;4967016;28;20042;-80
2022/12/23 11:33:57;;;;;;;118.20;62.50;;;;;;;8.14;100.00;100432.75;4966879;28;20031;-82
2022/12/23 11:36:27;;;;;;;116.65;60.80;;;;;;;8.03;100.00;100431.13;4966279;28;20034;-81
2022/12/23 11:39:03;;;;;;;111.65;59.65;;;;;;;8.19;100.00;100447.13;4966479;28;20038;-81
2022/12/23 11:41:38;;;;;;;118.90;62.25;;;;;;;8.18;100.00;100447.31;4963087;28;20084;-83
2022/12/23 11:44:16;;;;;;;105.47;58.35;;;;;;;8.12;100.00;100458.47;4967743;28;20030;-79
2022/12/23 11:46:42;;;;;;;99.75;57.28;;;;;;;8.17;100.00;100456.19;4967056;28;20046;-79